Time;durP1;ratioP1;P1;durP2;ratioP2;P2;SDS_P1;SDS_P2;PMS_P1;PMS_P2;Temp;Humidity;BMP_temperature;BMP_pressure;BME280_temperature;BME280_humidity;BME280_pressure;Samples;Min_cycle;Max_cycle;Signal;HPM_P1;HPM_P2
2022/04/25 00:01:24;;;;;;;4.70;3.55;;;7.40;97.80;;;;;;615950;231;26636;-72
2022/04/25 00:03:52;;;;;;;8.63;4.07;;;7.30;97.40;;;;;;616803;231;26569;-68
2022/04/25 00:06:20;;;;;;;4.87;3.30;;;7.30;97.60;;;;;;613898;233;26564;-68
2022/04/25 00:08:47;;;;;;;4.55;3.12;;;7.30;97.60;;;;;;615758;231;26879;-68
2022/04/25 00:11:14;;;;;;;6.60;3.08;;;7.30;97.50;;;;;;615923;231;26574;-67
2022/04/25 00:13:41;;;;;;;4.53;3.15;;;7.20;98.00;;;;;;615916;226;26914;-68
2022/04/25 00:16:09;;;;;;;4.57;2.90;;;7.20;97.80;;;;;;613904;233;26566;-68
2022/04/25 00:18:36;;;;;;;4.60;3.20;;;7.20;97.50;;;;;;614983;228;26818;-67
2022/04/25 00:21:03;;;;;;;7.32;3.33;;;7.20;97.50;;;;;;616416;231;26566;-68
2022/04/25 00:23:31;;;;;;;5.78;3.20;;;7.20;97.50;;;;;;617324;230;26945;-67
2022/04/25 00:25:58;;;;;;;4.10;3.80;;;7.20;97.50;;;;;;615479;231;26554;-67
2022/04/25 00:28:27;;;;;;;3.50;3.20;;;7.20;97.50;;;;;;614784;233;26583;-67
2022/04/25 00:30:54;;;;;;;5.53;3.50;;;7.20;97.50;;;;;;617470;230;26650;-67
2022/04/25 00:33:22;;;;;;;3.35;3.08;;;7.20;97.60;;;;;;615197;231;26844;-67
2022/04/25 00:35:49;;;;;;;4.12;3.17;;;7.20;98.00;;;;;;614751;231;26575;-67
2022/04/25 00:38:16;;;;;;;5.05;3.15;;;7.20;98.30;;;;;;617118;230;26635;-66
2022/04/25 00:40:44;;;;;;;5.07;2.90;;;7.30;98.00;;;;;;616778;230;26568;-67
2022/04/25 00:43:12;;;;;;;5.28;3.25;;;7.30;97.90;;;;;;617830;230;26835;-67
2022/04/25 00:45:39;;;;;;;5.10;3.65;;;7.40;98.30;;;;;;616392;230;26536;-67
2022/04/25 00:48:07;;;;;;;4.00;2.65;;;7.40;98.70;;;;;;617409;231;26818;-67
2022/04/25 00:50:34;;;;;;;5.22;3.40;;;7.40;98.80;;;;;;614405;231;26559;-68
2022/04/25 00:53:01;;;;;;;6.12;3.45;;;7.30;97.50;;;;;;615804;231;26835;-68
2022/04/25 00:55:29;;;;;;;3.70;3.20;;;7.30;97.70;;;;;;614274;233;26547;-67
2022/04/25 00:57:57;;;;;;;4.70;3.20;;;7.20;97.40;;;;;;617086;231;26640;-67
2022/04/25 01:00:24;;;;;;;3.53;2.87;;;7.20;98.50;;;;;;616829;231;26588;-67
2022/04/25 01:02:51;;;;;;;3.30;3.00;;;7.20;97.90;;;;;;616442;231;26810;-66
2022/04/25 01:05:18;;;;;;;3.25;2.95;;;7.10;98.90;;;;;;618126;231;26634;-66
2022/04/25 01:07:45;;;;;;;3.45;3.15;;;7.10;98.00;;;;;;615765;231;26583;-67
2022/04/25 01:10:13;;;;;;;3.80;2.70;;;7.10;98.20;;;;;;617333;231;26623;-67
2022/04/25 01:12:41;;;;;;;4.80;3.28;;;7.10;97.80;;;;;;615691;231;26599;-66
2022/04/25 01:15:09;;;;;;;3.17;2.53;;;7.00;97.70;;;;;;617974;231;26859;-67
2022/04/25 01:17:36;;;;;;;3.92;2.97;;;7.00;98.20;;;;;;618041;231;26618;-66
2022/04/25 01:20:05;;;;;;;3.20;2.90;;;7.00;98.00;;;;;;614828;231;26577;-66
2022/04/25 01:22:32;;;;;;;3.33;2.83;;;7.00;98.00;;;;;;616461;231;26613;-66
2022/04/25 01:27:33;;;;;;;3.20;2.65;;;7.00;98.20;;;;;;617340;231;26818;-66
2022/04/25 01:30:00;;;;;;;3.25;2.87;;;7.00;98.80;;;;;;617569;226;26878;-66
2022/04/25 01:32:28;;;;;;;3.95;2.90;;;6.90;98.70;;;;;;619217;229;26574;-72
2022/04/25 01:34:56;;;;;;;3.83;3.08;;;6.90;98.20;;;;;;615805;231;26624;-72
2022/04/25 01:37:23;;;;;;;4.85;3.25;;;6.90;98.20;;;;;;617026;230;26583;-73
2022/04/25 01:39:50;;;;;;;3.37;3.08;;;6.90;98.50;;;;;;617077;230;26566;-72
2022/04/25 01:42:17;;;;;;;5.28;2.50;;;6.80;98.40;;;;;;616724;230;26973;-72
2022/04/25 01:44:46;;;;;;;3.78;2.70;;;6.80;98.50;;;;;;616782;230;26604;-72
2022/04/25 01:47:13;;;;;;;6.18;3.58;;;6.90;98.30;;;;;;618509;230;26873;-72
2022/04/25 01:49:41;;;;;;;2.83;2.62;;;6.90;98.20;;;;;;617163;230;26834;-71
2022/04/25 01:52:18;;;;;;;2.95;2.75;;;6.90;98.70;;;;;;615038;231;26548;-72
2022/04/25 01:54:45;;;;;;;3.20;2.80;;;6.90;98.10;;;;;;616799;230;26563;-72
2022/04/25 01:57:12;;;;;;;5.03;2.30;;;6.90;98.30;;;;;;616141;231;26596;-72
2022/04/25 01:59:39;;;;;;;4.72;2.85;;;6.90;98.30;;;;;;615205;231;26872;-72
2022/04/25 02:02:07;;;;;;;3.78;3.42;;;6.90;98.30;;;;;;615008;231;26622;-71
2022/04/25 02:04:34;;;;;;;3.95;2.90;;;6.90;98.60;;;;;;615890;232;27253;-72
2022/04/25 02:07:01;;;;;;;3.30;3.00;;;6.90;98.90;;;;;;615841;232;26629;-72
2022/04/25 02:09:28;;;;;;;4.30;3.90;;;6.80;98.20;;;;;;615669;233;26557;-71
2022/04/25 02:11:56;;;;;;;3.35;2.53;;;6.80;99.00;;;;;;615740;234;26568;-71
2022/04/25 02:14:25;;;;;;;3.10;2.80;;;6.80;98.40;;;;;;615634;234;26604;-71
2022/04/25 02:16:52;;;;;;;4.43;2.53;;;6.70;98.40;;;;;;615615;234;26835;-71
2022/04/25 02:19:20;;;;;;;2.85;2.35;;;6.70;98.50;;;;;;615623;233;26840;-73
2022/04/25 02:21:48;;;;;;;3.45;3.12;;;6.70;99.10;;;;;;615699;234;26795;-71
2022/04/25 02:24:16;;;;;;;2.80;2.55;;;6.70;99.20;;;;;;615602;233;26557;-71
2022/04/25 02:26:43;;;;;;;3.40;2.85;;;6.60;99.10;;;;;;615643;233;26837;-72
2022/04/25 02:29:10;;;;;;;5.10;4.37;;;6.70;98.90;;;;;;615621;234;26560;-72
2022/04/25 02:31:38;;;;;;;2.53;2.30;;;6.70;98.90;;;;;;615679;234;26529;-71
2022/04/25 02:34:06;;;;;;;3.42;3.05;;;6.70;98.90;;;;;;615591;234;26580;-71
2022/04/25 02:36:35;;;;;;;2.50;2.30;;;6.60;98.70;;;;;;615669;233;26844;-70
2022/04/25 02:39:00;;;;;;;2.85;2.65;;;6.60;98.90;;;;;;615533;234;26562;-71
2022/04/25 02:41:28;;;;;;;2.50;2.33;;;6.60;98.60;;;;;;615639;233;26565;-71
2022/04/25 02:43:56;;;;;;;3.92;3.60;;;6.60;98.70;;;;;;617206;231;26619;-71
2022/04/25 02:46:23;;;;;;;2.53;2.42;;;6.60;98.70;;;;;;616809;232;26594;-71
2022/04/25 02:48:50;;;;;;;2.83;2.60;;;6.60;98.90;;;;;;616581;232;26567;-72
2022/04/25 02:51:17;;;;;;;2.42;2.22;;;6.50;98.90;;;;;;616489;233;26781;-71
2022/04/25 02:53:44;;;;;;;6.32;3.40;;;6.50;99.00;;;;;;616205;233;26564;-72
2022/04/25 02:56:12;;;;;;;2.97;2.65;;;6.50;99.00;;;;;;616249;232;26548;-71
2022/04/25 02:58:40;;;;;;;2.47;2.15;;;6.40;99.90;;;;;;616266;232;26567;-72
2022/04/25 03:01:08;;;;;;;2.62;2.33;;;6.40;99.40;;;;;;616010;232;26551;-71
2022/04/25 03:03:35;;;;;;;2.55;2.42;;;6.30;99.40;;;;;;615886;233;26842;-71
2022/04/25 03:06:02;;;;;;;2.70;2.20;;;6.30;99.90;;;;;;615925;232;26615;-72
2022/04/25 03:08:29;;;;;;;3.10;2.20;;;6.30;99.90;;;;;;615929;233;26926;-72
2022/04/25 03:10:56;;;;;;;2.47;2.30;;;6.30;99.50;;;;;;615870;233;26580;-71
2022/04/25 03:13:24;;;;;;;2.50;2.30;;;6.20;99.70;;;;;;615927;232;26596;-72
2022/04/25 03:15:51;;;;;;;4.18;3.78;;;6.20;99.60;;;;;;615901;233;26612;-71
2022/04/25 03:18:19;;;;;;;3.20;2.58;;;6.10;99.90;;;;;;615637;233;26670;-71
2022/04/25 03:20:48;;;;;;;3.42;3.12;;;6.10;99.80;;;;;;615490;233;26561;-72
2022/04/25 03:23:16;;;;;;;3.78;3.47;;;6.10;99.80;;;;;;615483;232;26800;-71
2022/04/25 03:25:44;;;;;;;3.62;2.67;;;6.20;99.90;;;;;;615607;234;26827;-72
2022/04/25 03:28:11;;;;;;;3.35;3.05;;;6.10;99.90;;;;;;615559;234;26585;-71
2022/04/25 03:30:38;;;;;;;3.40;3.10;;;6.20;99.90;;;;;;615651;233;26569;-72
2022/04/25 03:33:06;;;;;;;4.55;3.85;;;6.10;99.90;;;;;;615639;233;26554;-71
2022/04/25 03:35:34;;;;;;;3.00;2.80;;;6.10;99.90;;;;;;615577;233;26583;-71
2022/04/25 03:38:02;;;;;;;2.50;2.40;;;6.10;99.90;;;;;;615628;233;26585;-72
2022/04/25 03:40:29;;;;;;;2.83;2.58;;;6.10;99.90;;;;;;615499;234;26537;-72
2022/04/25 03:42:56;;;;;;;4.00;3.55;;;6.10;99.90;;;;;;615610;228;26557;-72
2022/04/25 03:45:23;;;;;;;5.93;2.70;;;6.20;99.80;;;;;;615589;233;26812;-72
2022/04/25 03:47:51;;;;;;;4.18;3.85;;;6.20;99.90;;;;;;615640;233;26588;-72
2022/04/25 03:50:18;;;;;;;3.37;3.08;;;6.20;99.60;;;;;;615634;234;27210;-73
2022/04/25 03:52:46;;;;;;;4.18;2.40;;;6.20;99.90;;;;;;615619;234;26549;-72
2022/04/25 03:57:47;;;;;;;2.83;2.62;;;6.20;99.60;;;;;;616893;233;26608;-72
2022/04/25 04:00:14;;;;;;;2.47;2.28;;;6.40;99.90;;;;;;616588;232;26762;-72
2022/04/25 04:02:42;;;;;;;5.70;3.72;;;6.40;99.40;;;;;;616442;232;26567;-72
2022/04/25 04:05:10;;;;;;;3.08;2.78;;;6.40;99.30;;;;;;616213;232;26584;-72
2022/04/25 04:07:37;;;;;;;3.00;2.67;;;6.40;99.30;;;;;;616267;232;26604;-72
2022/04/25 04:10:05;;;;;;;2.47;2.28;;;6.50;99.00;;;;;;616323;232;26532;-72
2022/04/25 04:12:33;;;;;;;2.25;2.15;;;6.50;99.40;;;;;;616091;232;26624;-71
2022/04/25 04:15:04;;;;;;;3.47;3.17;;;6.50;98.80;;;;;;615827;233;26576;-73
2022/04/25 04:17:30;;;;;;;2.90;2.70;;;6.50;98.80;;;;;;615965;232;26838;-73
2022/04/25 04:19:58;;;;;;;2.75;2.55;;;6.60;99.20;;;;;;615955;232;26613;-71
2022/04/25 04:22:26;;;;;;;3.05;2.85;;;6.60;98.50;;;;;;615951;232;26627;-71
2022/04/25 04:24:54;;;;;;;2.08;1.98;;;6.50;99.40;;;;;;615623;233;26612;-72
2022/04/25 04:27:21;;;;;;;2.40;2.30;;;6.50;99.40;;;;;;615274;233;26953;-71
2022/04/25 04:29:49;;;;;;;3.65;3.00;;;6.60;99.50;;;;;;615877;233;26611;-74
2022/04/25 04:32:16;;;;;;;4.07;3.08;;;6.60;98.80;;;;;;615632;234;26576;-72
2022/04/25 04:34:44;;;;;;;5.82;4.07;;;6.70;98.50;;;;;;615590;234;26565;-74
2022/04/25 04:37:12;;;;;;;2.05;1.95;;;6.60;98.50;;;;;;615633;234;26576;-71
2022/04/25 04:39:39;;;;;;;3.05;2.60;;;6.50;98.70;;;;;;615673;233;26568;-72
2022/04/25 04:42:07;;;;;;;3.67;2.97;;;6.50;98.70;;;;;;615633;233;26864;-71
2022/04/25 04:44:36;;;;;;;4.07;2.40;;;6.60;98.50;;;;;;615598;234;26576;-71
2022/04/25 04:47:03;;;;;;;4.50;2.30;;;6.70;99.40;;;;;;615592;234;26590;-71
2022/04/25 04:49:30;;;;;;;3.28;3.08;;;6.70;99.40;;;;;;615538;234;26813;-71
2022/04/25 04:51:57;;;;;;;4.60;4.20;;;6.60;98.50;;;;;;615607;233;26574;-72
2022/04/25 04:54:24;;;;;;;2.75;2.20;;;6.70;98.80;;;;;;615565;234;26561;-71
2022/04/25 04:56:52;;;;;;;4.87;3.78;;;6.80;99.10;;;;;;615618;234;26594;-71
2022/04/25 04:59:20;;;;;;;2.42;2.33;;;6.90;98.00;;;;;;615597;233;26549;-72
2022/04/25 05:01:47;;;;;;;2.80;2.50;;;6.80;97.70;;;;;;615675;233;26826;-71
2022/04/25 05:04:14;;;;;;;2.62;2.42;;;6.90;97.90;;;;;;615635;233;26552;-70
2022/04/25 05:06:42;;;;;;;2.40;2.30;;;7.00;98.70;;;;;;617027;231;27143;-71
2022/04/25 05:09:09;;;;;;;2.95;2.75;;;7.00;98.10;;;;;;616903;232;26544;-71
2022/04/25 05:11:36;;;;;;;2.62;2.42;;;7.10;97.60;;;;;;616539;233;26560;-71
2022/04/25 05:14:09;;;;;;;2.20;2.10;;;7.10;97.30;;;;;;616480;233;26573;-72
2022/04/25 05:16:31;;;;;;;2.58;2.25;;;7.10;97.50;;;;;;615855;233;26838;-71
2022/04/25 05:18:59;;;;;;;2.40;2.20;;;7.10;97.40;;;;;;616250;232;26563;-71
2022/04/25 05:21:26;;;;;;;2.40;2.20;;;7.20;98.10;;;;;;616295;233;27303;-71
2022/04/25 05:23:53;;;;;;;6.32;5.07;;;7.30;97.50;;;;;;615975;233;26572;-71
2022/04/25 05:26:20;;;;;;;2.33;2.22;;;7.30;96.70;;;;;;615910;232;26598;-71
2022/04/25 05:28:48;;;;;;;2.90;2.70;;;7.40;97.40;;;;;;615925;232;26578;-71
2022/04/25 05:31:16;;;;;;;2.62;2.37;;;7.40;97.50;;;;;;615929;232;26590;-71
2022/04/25 05:33:43;;;;;;;5.57;2.70;;;7.40;98.50;;;;;;615954;233;26637;-72
2022/04/25 05:36:10;;;;;;;3.03;2.50;;;7.50;96.70;;;;;;604573;233;26687;-71
2022/04/25 05:38:37;;;;;;;2.20;2.10;;;7.50;96.60;;;;;;616053;233;26834;-71
2022/04/25 05:41:07;;;;;;;2.60;2.42;;;7.70;96.50;;;;;;615894;232;26640;-71
2022/04/25 05:43:33;;;;;;;2.72;2.53;;;7.80;96.50;;;;;;615479;234;26569;-72
2022/04/25 05:46:00;;;;;;;2.58;2.40;;;7.70;96.70;;;;;;615656;233;26567;-72
2022/04/25 05:53:33;;;;;;;2.83;2.62;;;8.00;95.80;;;;;;615634;234;26560;-71
2022/04/25 05:56:00;;;;;;;2.70;2.50;;;8.00;95.20;;;;;;615646;233;26557;-70
2022/04/25 05:58:27;;;;;;;2.40;2.12;;;8.10;96.20;;;;;;615569;234;27247;-71
2022/04/25 06:00:55;;;;;;;4.20;2.83;;;8.20;97.50;;;;;;615487;233;26530;-72
2022/04/25 06:03:22;;;;;;;2.95;2.72;;;8.20;95.00;;;;;;615438;233;26565;-71
2022/04/25 06:05:50;;;;;;;2.58;2.10;;;8.20;96.10;;;;;;615528;228;26574;-70
2022/04/25 06:08:18;;;;;;;2.92;2.65;;;8.30;95.00;;;;;;615480;234;26593;-70
2022/04/25 06:10:45;;;;;;;3.20;2.90;;;8.30;94.70;;;;;;615611;233;26806;-70
2022/04/25 06:13:13;;;;;;;2.60;2.40;;;8.40;94.50;;;;;;615621;233;26588;-71
2022/04/25 06:15:41;;;;;;;2.70;2.50;;;8.30;94.50;;;;;;615879;228;26541;-70
2022/04/25 06:18:09;;;;;;;2.80;2.60;;;8.30;94.50;;;;;;617282;227;26588;-69
2022/04/25 06:20:37;;;;;;;2.65;2.45;;;8.40;95.30;;;;;;617264;232;26542;-69
2022/04/25 06:23:03;;;;;;;2.65;2.40;;;8.70;95.10;;;;;;617035;231;26616;-70
2022/04/25 06:25:30;;;;;;;2.70;2.50;;;8.70;94.60;;;;;;618058;230;26571;-71
2022/04/25 06:28:00;;;;;;;7.45;2.90;;;8.60;94.50;;;;;;618912;230;26641;-68
2022/04/25 06:30:28;;;;;;;6.75;2.78;;;8.60;94.20;;;;;;614925;231;26832;-67
2022/04/25 06:32:53;;;;;;;3.78;2.47;;;8.50;94.30;;;;;;615155;233;26552;-69
2022/04/25 06:35:20;;;;;;;4.25;2.40;;;8.60;94.10;;;;;;615449;231;27156;-69
2022/04/25 06:37:48;;;;;;;3.10;2.85;;;8.60;95.30;;;;;;616812;230;26593;-68
2022/04/25 06:40:16;;;;;;;2.47;2.30;;;8.90;93.90;;;;;;616773;231;26566;-70
2022/04/25 06:42:43;;;;;;;3.58;2.30;;;8.90;93.90;;;;;;613945;233;26575;-68
2022/04/25 06:45:10;;;;;;;8.23;3.95;;;8.90;93.50;;;;;;613515;233;26560;-69
2022/04/25 06:47:39;;;;;;;4.10;3.70;;;9.10;94.00;;;;;;614717;231;26598;-68
2022/04/25 06:50:07;;;;;;;4.22;3.80;;;9.10;93.50;;;;;;616083;231;26789;-69
2022/04/25 06:52:35;;;;;;;5.95;3.58;;;9.10;93.40;;;;;;618158;230;26552;-68
2022/04/25 06:55:04;;;;;;;3.42;3.20;;;9.10;93.40;;;;;;613902;233;26559;-68
2022/04/25 06:57:32;;;;;;;3.37;3.17;;;9.20;93.40;;;;;;614839;231;26815;-67
2022/04/25 06:59:57;;;;;;;5.37;4.00;;;9.20;93.40;;;;;;615419;231;26569;-68
2022/04/25 07:02:25;;;;;;;4.00;3.70;;;9.20;93.00;;;;;;615872;231;26579;-68
2022/04/25 07:04:52;;;;;;;4.43;3.55;;;9.30;93.30;;;;;;616562;231;26762;-68
2022/04/25 07:07:19;;;;;;;3.78;3.47;;;9.30;93.60;;;;;;614752;231;26596;-68
2022/04/25 07:09:46;;;;;;;5.03;3.45;;;9.40;94.20;;;;;;614607;231;26871;-67
2022/04/25 07:12:13;;;;;;;4.35;3.50;;;9.60;93.80;;;;;;614025;228;26576;-68
2022/04/25 07:14:41;;;;;;;4.18;3.08;;;9.50;92.20;;;;;;614364;231;27114;-67
2022/04/25 07:17:09;;;;;;;5.22;3.75;;;9.50;92.20;;;;;;615576;228;26565;-67
2022/04/25 07:19:39;;;;;;;4.50;3.30;;;9.40;92.50;;;;;;618271;231;26549;-66
2022/04/25 07:29:47;;;;;;;3.90;3.00;;;9.50;92.40;;;;;;618868;228;26853;-66
2022/04/25 07:32:11;;;;;;;5.10;3.05;;;9.50;93.60;;;;;;615791;233;26637;-66
2022/04/25 07:34:39;;;;;;;12.98;3.58;;;9.60;92.70;;;;;;613817;232;26869;-66
2022/04/25 07:37:06;;;;;;;11.23;3.60;;;9.50;92.50;;;;;;615419;233;26578;-66
2022/04/25 07:39:34;;;;;;;10.38;3.67;;;9.70;93.40;;;;;;614492;233;26713;-66
2022/04/25 07:42:04;;;;;;;74.70;17.37;;;9.80;94.40;;;;;;616155;233;26561;-64
2022/04/25 07:44:30;;;;;;;148.35;25.48;;;9.90;92.50;;;;;;613588;231;26623;-65
2022/04/25 07:46:59;;;;;;;1306.10;140.57;;;9.90;92.60;;;;;;622102;230;26649;-65
2022/04/25 07:49:26;;;;;;;96.37;26.65;;;9.90;92.70;;;;;;620588;230;26674;-65
2022/04/25 07:51:55;;;;;;;106.40;25.17;;;9.70;92.90;;;;;;613877;233;26563;-66
2022/04/25 07:54:22;;;;;;;69.97;23.67;;;9.50;92.80;;;;;;612627;234;26560;-68
2022/04/25 07:56:51;;;;;;;45.97;16.58;;;9.70;92.60;;;;;;612940;235;26559;-68
2022/04/25 07:59:18;;;;;;;47.33;18.08;;;10.00;93.60;;;;;;614227;233;26537;-71
2022/04/25 08:01:46;;;;;;;57.38;17.90;;;10.10;92.40;;;;;;616079;233;26573;-68
2022/04/25 08:04:13;;;;;;;48.22;16.35;;;10.10;92.30;;;;;;615940;231;26592;-66
2022/04/25 08:06:40;;;;;;;6.43;5.10;;;10.30;91.80;;;;;;615357;233;26600;-67
2022/04/25 08:09:08;;;;;;;11.02;5.45;;;10.80;92.60;;;;;;612435;235;26621;-68
2022/04/25 08:11:36;;;;;;;12.90;4.95;;;11.10;91.00;;;;;;616660;231;26623;-67
2022/04/25 08:19:10;;;;;;;8.95;4.40;;;11.30;90.30;;;;;;612430;234;26838;-69
2022/04/25 08:21:38;;;;;;;8.68;4.28;;;11.50;91.30;;;;;;613993;234;26552;-67
2022/04/25 08:24:05;;;;;;;9.13;4.12;;;11.50;91.20;;;;;;613891;231;26575;-67
2022/04/25 08:26:33;;;;;;;4.90;3.40;;;11.60;92.00;;;;;;613473;231;26628;-67
2022/04/25 08:29:00;;;;;;;17.90;5.32;;;11.60;90.60;;;;;;614622;231;26547;-67
2022/04/25 08:31:27;;;;;;;13.82;5.55;;;11.60;88.70;;;;;;618681;231;26805;-68
2022/04/25 08:33:55;;;;;;;12.30;4.97;;;11.40;87.50;;;;;;615542;234;26560;-67
2022/04/25 08:36:22;;;;;;;14.32;4.87;;;11.00;87.80;;;;;;612886;234;26581;-68
2022/04/25 08:38:49;;;;;;;12.85;4.82;;;10.90;90.00;;;;;;615048;233;26577;-68
2022/04/25 08:41:17;;;;;;;13.95;4.30;;;10.80;89.70;;;;;;613705;232;26622;-68
2022/04/25 08:43:44;;;;;;;12.43;4.60;;;11.00;88.60;;;;;;615995;233;26545;-67
2022/04/25 08:46:12;;;;;;;10.80;4.87;;;10.80;88.80;;;;;;616772;233;26577;-67
2022/04/25 08:48:39;;;;;;;12.63;4.70;;;10.60;88.80;;;;;;616800;232;26804;-67
2022/04/25 08:51:06;;;;;;;8.88;3.90;;;10.60;88.70;;;;;;616464;232;26591;-67
2022/04/25 08:53:35;;;;;;;7.03;3.55;;;10.60;89.00;;;;;;616291;232;26532;-67
2022/04/25 08:56:02;;;;;;;8.48;3.95;;;10.70;88.30;;;;;;616066;232;26565;-67
2022/04/25 08:58:31;;;;;;;12.18;4.40;;;11.10;89.20;;;;;;616031;232;26583;-67
2022/04/25 09:00:58;;;;;;;11.82;4.05;;;11.00;88.90;;;;;;615942;233;26613;-67
2022/04/25 09:03:25;;;;;;;7.55;3.87;;;11.30;86.70;;;;;;615971;232;27137;-67
2022/04/25 09:05:53;;;;;;;5.57;3.35;;;11.20;86.60;;;;;;615879;232;26581;-67
2022/04/25 09:08:21;;;;;;;6.90;3.62;;;11.00;88.10;;;;;;615963;233;26638;-67
2022/04/25 09:10:49;;;;;;;5.75;3.28;;;11.20;86.70;;;;;;615880;232;26624;-67
2022/04/25 09:13:17;;;;;;;8.32;4.10;;;11.30;86.10;;;;;;615928;233;26615;-66
2022/04/25 09:15:44;;;;;;;7.82;3.60;;;11.20;86.00;;;;;;615884;232;26600;-66
2022/04/25 09:18:11;;;;;;;6.78;3.55;;;11.00;86.10;;;;;;615527;234;26592;-67
2022/04/25 09:20:39;;;;;;;4.22;3.28;;;10.90;86.30;;;;;;615670;233;26909;-67
2022/04/25 09:23:07;;;;;;;3.80;2.97;;;10.90;86.60;;;;;;615686;234;26537;-67
2022/04/25 09:25:35;;;;;;;5.80;3.15;;;11.10;87.10;;;;;;613674;234;26571;-66
2022/04/25 09:28:09;;;;;;;4.40;3.62;;;11.40;84.90;;;;;;615667;233;26600;-67
2022/04/25 09:30:36;;;;;;;5.07;3.28;;;11.40;84.90;;;;;;615660;233;27346;-67
2022/04/25 09:33:03;;;;;;;7.65;3.30;;;11.90;84.60;;;;;;615718;228;26553;-67
2022/04/25 09:35:33;;;;;;;4.03;3.33;;;12.10;86.10;;;;;;615470;231;26886;-66
2022/04/25 09:38:01;;;;;;;3.30;3.00;;;12.40;83.60;;;;;;614748;230;26877;-66
2022/04/25 09:40:29;;;;;;;3.87;2.80;;;12.70;87.20;;;;;;612872;234;27205;-66
2022/04/25 09:43:04;;;;;;;6.25;3.08;;;12.80;85.80;;;;;;614305;233;26560;-68
2022/04/25 09:45:32;;;;;;;4.40;2.80;;;12.80;81.00;;;;;;619574;231;26599;-68
2022/04/25 09:47:59;;;;;;;4.25;2.78;;;12.80;81.00;;;;;;615808;230;26634;-67
2022/04/25 09:50:27;;;;;;;3.40;3.08;;;12.90;80.50;;;;;;615041;233;26540;-68
2022/04/25 09:52:55;;;;;;;3.30;3.00;;;12.90;82.00;;;;;;614013;232;26858;-68
2022/04/25 09:55:22;;;;;;;3.70;3.40;;;13.10;80.10;;;;;;617197;231;26643;-69
2022/04/25 09:57:50;;;;;;;6.25;3.20;;;12.80;81.70;;;;;;621180;231;26840;-69
2022/04/25 10:00:33;;;;;;;3.08;2.62;;;12.40;82.30;;;;;;621777;230;26614;-68
2022/04/25 10:03:01;;;;;;;2.72;2.53;;;12.40;82.20;;;;;;618503;231;26642;-68
2022/04/25 10:05:35;;;;;;;2.87;2.62;;;12.80;80.60;;;;;;614297;233;26562;-68
2022/04/25 10:08:03;;;;;;;3.00;2.70;;;12.80;83.10;;;;;;613829;232;26649;-67
2022/04/25 10:10:30;;;;;;;2.47;2.28;;;12.90;84.40;;;;;;615508;233;26590;-67
2022/04/25 10:12:57;;;;;;;2.80;2.60;;;13.10;84.40;;;;;;615718;231;26852;-67
2022/04/25 10:15:25;;;;;;;3.67;2.58;;;13.20;82.20;;;;;;613923;233;26573;-67
2022/04/25 10:17:53;;;;;;;3.67;2.83;;;13.00;79.30;;;;;;619350;231;26596;-67
2022/04/25 10:20:21;;;;;;;6.68;2.80;;;12.90;78.90;;;;;;621156;231;26567;-68
2022/04/25 10:22:48;;;;;;;3.00;2.50;;;12.70;81.40;;;;;;615073;233;26604;-68
2022/04/25 10:25:16;;;;;;;5.20;2.85;;;12.80;81.30;;;;;;616014;231;26617;-68
2022/04/25 10:27:43;;;;;;;3.33;2.65;;;13.00;81.10;;;;;;616129;231;26608;-68
2022/04/25 10:30:14;;;;;;;2.78;2.58;;;13.20;79.60;;;;;;612434;231;26846;-69
2022/04/25 10:32:41;;;;;;;2.87;2.65;;;12.90;79.30;;;;;;615363;231;26591;-68
2022/04/25 10:35:14;;;;;;;4.30;2.65;;;13.00;78.80;;;;;;613663;233;26525;-68
2022/04/25 10:37:43;;;;;;;2.40;2.20;;;13.00;78.70;;;;;;612946;233;26877;-68
2022/04/25 10:40:09;;;;;;;2.75;2.50;;;13.20;77.80;;;;;;614788;233;26525;-68
2022/04/25 10:45:21;;;;;;;3.30;2.30;;;13.40;79.70;;;;;;613763;233;26574;-68
2022/04/25 10:47:57;;;;;;;2.30;2.17;;;13.70;79.40;;;;;;610320;232;26807;-68
2022/04/25 10:50:22;;;;;;;2.25;2.05;;;13.60;78.90;;;;;;614229;231;26600;-68
2022/04/25 10:52:53;;;;;;;4.03;2.78;;;13.80;77.20;;;;;;614662;231;26556;-68
2022/04/25 10:55:26;;;;;;;5.00;2.50;;;13.70;77.10;;;;;;614332;231;26636;-67
2022/04/25 10:58:14;;;;;;;2.37;2.28;;;13.70;76.40;;;;;;615152;231;26832;-67
2022/04/25 11:00:45;;;;;;;2.00;1.90;;;13.90;78.90;;;;;;615575;231;26553;-66
2022/04/25 11:03:13;;;;;;;2.00;1.90;;;14.30;81.10;;;;;;620640;229;26831;-66
2022/04/25 11:05:44;;;;;;;2.20;2.00;;;14.10;78.60;;;;;;616176;230;26595;-66
2022/04/25 11:08:25;;;;;;;3.70;2.55;;;14.30;79.30;;;;;;617324;230;26866;-67
2022/04/25 11:11:00;;;;;;;5.95;2.67;;;14.40;78.00;;;;;;620884;230;26567;-68
2022/04/25 11:13:29;;;;;;;6.62;2.60;;;14.30;76.40;;;;;;616960;230;26722;-68
2022/04/25 11:15:56;;;;;;;1.90;1.77;;;14.30;76.40;;;;;;615363;230;27381;-69
2022/04/25 11:18:30;;;;;;;1.95;1.67;;;14.10;77.10;;;;;;620201;230;26804;-68
2022/04/25 11:20:56;;;;;;;3.20;2.20;;;14.10;80.30;;;;;;615864;230;26626;-68
2022/04/25 11:23:29;;;;;;;1.87;1.77;;;14.20;76.30;;;;;;616597;230;26561;-69
2022/04/25 11:25:55;;;;;;;6.53;2.85;;;14.30;78.20;;;;;;618211;231;26838;-68
2022/04/25 11:28:21;;;;;;;2.40;2.10;;;14.20;75.50;;;;;;616709;231;26627;-68
2022/04/25 11:31:10;;;;;;;4.37;2.25;;;14.30;75.70;;;;;;619285;230;27087;-68
2022/04/25 11:33:40;;;;;;;5.03;2.12;;;14.30;76.50;;;;;;614007;231;26831;-68
2022/04/25 11:36:08;;;;;;;4.35;2.30;;;14.30;77.10;;;;;;621359;230;26796;-68
2022/04/25 11:39:50;;;;;;;3.80;2.20;;;14.40;78.90;;;;;;613662;230;26590;-68
2022/04/25 11:41:03;;;;;;;2.40;2.03;;;14.50;77.10;;;;;;616933;231;26918;-69
2022/04/25 11:43:30;;;;;;;3.60;2.25;;;14.40;78.40;;;;;;618373;231;26556;-69
2022/04/25 11:45:58;;;;;;;4.45;2.62;;;14.70;76.80;;;;;;619263;231;27126;-68
2022/04/25 11:48:25;;;;;;;6.35;2.30;;;14.70;73.00;;;;;;613551;231;26648;-69
2022/04/25 11:50:53;;;;;;;6.80;2.58;;;14.40;73.10;;;;;;613139;233;26566;-69
2022/04/25 11:53:36;;;;;;;3.05;2.78;;;14.00;73.70;;;;;;615596;233;26572;-69
2022/04/25 11:56:21;;;;;;;3.03;2.70;;;13.90;73.50;;;;;;619555;231;26835;-69
2022/04/25 11:58:48;;;;;;;2.53;2.33;;;14.00;74.10;;;;;;622024;230;26658;-69
2022/04/25 12:01:14;;;;;;;4.45;2.58;;;14.10;73.60;;;;;;616016;231;27102;-67
2022/04/25 12:03:43;;;;;;;3.15;2.85;;;14.10;74.20;;;;;;616347;231;26601;-70
2022/04/25 12:06:08;;;;;;;4.97;2.67;;;14.10;74.10;;;;;;615101;234;26777;-69
2022/04/25 12:16:15;;;;;;;4.55;2.78;;;14.60;74.80;;;;;;614442;232;26627;-69
2022/04/25 12:18:46;;;;;;;3.67;2.30;;;14.80;71.70;;;;;;622950;230;26809;-70
2022/04/25 12:21:14;;;;;;;2.83;2.40;;;14.70;71.60;;;;;;614454;232;26559;-69
2022/04/25 12:23:43;;;;;;;4.43;2.87;;;14.80;71.90;;;;;;614549;233;27244;-69
2022/04/25 12:26:08;;;;;;;7.45;3.05;;;15.10;74.40;;;;;;614872;233;26559;-69
2022/04/25 12:28:38;;;;;;;3.83;2.30;;;15.10;71.30;;;;;;612426;233;26853;-69
2022/04/25 12:31:07;;;;;;;2.70;2.00;;;14.90;72.60;;;;;;615007;232;26803;-68
2022/04/25 12:33:36;;;;;;;2.95;2.33;;;15.20;73.00;;;;;;614503;233;26623;-70
2022/04/25 12:36:10;;;;;;;4.70;2.50;;;15.20;72.40;;;;;;619507;231;26558;-69
2022/04/25 12:38:43;;;;;;;2.03;1.90;;;15.60;71.60;;;;;;613240;231;26626;-68
2022/04/25 12:41:11;;;;;;;3.30;2.50;;;15.90;69.60;;;;;;618282;231;26555;-69
2022/04/25 12:43:43;;;;;;;5.75;2.45;;;16.30;68.90;;;;;;611645;234;26555;-69
2022/04/25 12:46:10;;;;;;;3.67;2.42;;;16.30;68.80;;;;;;612961;234;26536;-69
2022/04/25 12:48:49;;;;;;;2.20;2.00;;;16.50;68.40;;;;;;620273;231;26798;-69
2022/04/25 12:51:33;;;;;;;4.32;2.33;;;16.80;69.80;;;;;;614088;233;26553;-70
2022/04/25 12:54:00;;;;;;;3.65;2.45;;;16.60;66.10;;;;;;615561;233;26561;-69
2022/04/25 12:56:28;;;;;;;4.05;2.42;;;17.00;65.70;;;;;;613875;231;26624;-69
2022/04/25 12:58:56;;;;;;;3.37;2.30;;;17.30;65.70;;;;;;617809;231;26574;-68
2022/04/25 13:01:27;;;;;;;4.47;2.62;;;17.30;66.30;;;;;;617266;231;26822;-68
2022/04/25 13:04:02;;;;;;;3.42;2.50;;;17.60;63.70;;;;;;614830;231;26542;-69
2022/04/25 13:06:29;;;;;;;3.20;2.65;;;17.40;63.90;;;;;;617227;231;26623;-68
2022/04/25 13:08:57;;;;;;;2.58;2.37;;;18.40;61.30;;;;;;615091;231;26584;-72
2022/04/25 13:11:25;;;;;;;5.10;2.60;;;18.30;59.90;;;;;;615210;231;26560;-69
2022/04/25 13:13:52;;;;;;;4.40;2.62;;;18.30;59.90;;;;;;614654;231;26556;-68
2022/04/25 13:16:20;;;;;;;9.23;2.67;;;18.70;59.60;;;;;;620210;231;26608;-68
2022/04/25 13:18:48;;;;;;;2.03;1.67;;;20.10;60.60;;;;;;615443;231;26586;-68
2022/04/25 13:21:16;;;;;;;2.62;2.40;;;20.60;59.10;;;;;;618861;231;26591;-64
2022/04/25 13:23:43;;;;;;;2.85;2.40;;;20.60;58.60;;;;;;620171;231;26947;-64
2022/04/25 13:26:10;;;;;;;11.77;3.28;;;21.00;60.00;;;;;;612234;231;26624;-64
2022/04/25 13:28:38;;;;;;;5.32;2.62;;;20.90;56.20;;;;;;617650;230;26620;-64